Terminal Aerodrome Forecast
Issued by NWS Wilmington, OH

Current Version | Previous Version | Text Only | Print | Product List | Glossary Off
Versions: 1 2 3 4 5 6 7 8 9 10 11 12 13 14 15 16 17 18 19 20 21

000
FTUS41 KILN 161100
TAFDAY
TAF
KDAY 161127Z 1612/1712 02008KT P6SM OVC008
      TEMPO 1612/1613 5SM BR
     FM161500 01008KT P6SM BKN015
     FM161900 02008KT P6SM BKN025
     FM162000 02007KT P6SM SCT035
     FM170000 VRB03KT P6SM SKC
     FM170600 VRB03KT 4SM BR SKC=

USA.gov is the U.S. government's official web portal to all federal, state and local government web resources and services.